createdAt,value
2022-12-29T00:00:31.545Z,11.23
2022-12-29T00:02:59.957Z,11.54
2022-12-29T00:05:29.744Z,11.20
2022-12-29T00:07:58.065Z,12.08
2022-12-29T00:10:26.480Z,11.28
2022-12-29T00:13:12.243Z,11.33
2022-12-29T00:15:41.080Z,10.99
2022-12-29T00:18:10.451Z,10.71
2022-12-29T00:20:57.713Z,10.60
2022-12-29T00:23:43.478Z,10.47
2022-12-29T00:26:33.930Z,10.41
2022-12-29T00:29:19.873Z,10.29
2022-12-29T00:32:08.211Z,10.22
2022-12-29T00:34:55.411Z,10.18
2022-12-29T00:37:45.305Z,10.20
2022-12-29T00:40:32.965Z,10.16
2022-12-29T00:43:19.573Z,10.14
2022-12-29T00:45:48.206Z,10.14
2022-12-29T00:48:36.963Z,10.14
2022-12-29T00:51:04.790Z,10.17
2022-12-29T00:53:34.919Z,10.12
2022-12-29T00:56:03.434Z,10.17
2022-12-29T00:58:33.049Z,10.16
2022-12-29T01:01:06.179Z,10.09
2022-12-29T01:03:36.912Z,10.10
2022-12-29T01:06:06.904Z,10.10
2022-12-29T01:08:37.411Z,10.09
2022-12-29T01:11:07.265Z,10.11
2022-12-29T01:13:37.043Z,10.14
2022-12-29T01:16:07.819Z,10.11
2022-12-29T01:18:37.015Z,10.14
2022-12-29T01:21:08.228Z,10.15
2022-12-29T01:23:37.938Z,10.19
2022-12-29T01:26:12.157Z,10.18
2022-12-29T01:28:42.519Z,10.23
2022-12-29T01:31:12.270Z,10.20
2022-12-29T01:33:40.794Z,10.22
2022-12-29T01:36:12.084Z,10.22
2022-12-29T01:38:43.244Z,10.25
2022-12-29T01:41:14.639Z,10.22
2022-12-29T01:43:46.288Z,10.26
2022-12-29T01:46:25.449Z,10.26
2022-12-29T01:49:02.160Z,10.23
2022-12-29T01:51:34.048Z,10.29
2022-12-29T01:54:11.989Z,10.29
2022-12-29T01:56:40.708Z,10.29
2022-12-29T01:59:16.721Z,10.23
2022-12-29T02:01:47.310Z,10.23
2022-12-29T02:04:16.182Z,10.27
2022-12-29T02:06:53.537Z,10.29
2022-12-29T02:09:24.655Z,10.29
2022-12-29T02:11:54.112Z,10.32
2022-12-29T02:14:22.606Z,10.32
2022-12-29T02:17:09.156Z,10.38
2022-12-29T02:20:20.596Z,10.39
2022-12-29T02:23:06.517Z,10.41
2022-12-29T02:26:02.786Z,10.42
2022-12-29T02:29:21.455Z,10.44
2022-12-29T02:31:59.915Z,10.43
2022-12-29T02:34:42.791Z,10.45
2022-12-29T02:37:21.727Z,10.49
2022-12-29T02:39:58.676Z,10.50
2022-12-29T02:42:35.925Z,10.49
2022-12-29T02:45:10.240Z,10.49
2022-12-29T02:47:44.894Z,10.46
2022-12-29T02:50:19.932Z,10.43
2022-12-29T02:52:53.706Z,10.39
2022-12-29T02:55:21.279Z,10.40
2022-12-29T02:58:17.774Z,10.39
2022-12-29T03:01:03.772Z,10.45
2022-12-29T03:03:50.253Z,10.47
2022-12-29T03:06:37.939Z,10.52
2022-12-29T03:09:21.483Z,10.54
2022-12-29T03:12:09.790Z,10.54
2022-12-29T03:15:10.438Z,10.57
2022-12-29T03:17:50.947Z,10.54
2022-12-29T03:20:27.612Z,10.55
2022-12-29T03:23:02.686Z,10.56
2022-12-29T03:25:38.030Z,10.61
2022-12-29T03:28:14.279Z,10.61
2022-12-29T03:30:47.905Z,10.61
2022-12-29T03:33:24.302Z,10.54
2022-12-29T03:36:00.802Z,10.59
2022-12-29T03:38:38.273Z,10.53
2022-12-29T03:41:19.478Z,10.54
2022-12-29T03:43:48.354Z,10.52
2022-12-29T03:46:16.870Z,10.59
2022-12-29T03:48:45.434Z,10.65
2022-12-29T03:51:15.238Z,10.68
2022-12-29T03:53:43.658Z,10.71
2022-12-29T03:56:12.073Z,10.72
2022-12-29T03:58:40.489Z,10.75
2022-12-29T04:01:12.525Z,10.79
2022-12-29T04:03:41.288Z,10.78
2022-12-29T04:06:09.978Z,10.82
2022-12-29T04:08:49.138Z,10.85
2022-12-29T04:11:18.309Z,10.87
2022-12-29T04:13:47.290Z,10.92
2022-12-29T04:16:20.024Z,10.95
2022-12-29T04:18:49.009Z,10.94
2022-12-29T04:21:17.934Z,10.94
2022-12-29T04:23:48.217Z,10.92
2022-12-29T04:26:18.626Z,11.00
2022-12-29T04:28:55.668Z,10.96
2022-12-29T04:31:35.937Z,11.08
2022-12-29T04:34:04.432Z,11.12
2022-12-29T04:36:34.346Z,11.15
2022-12-29T04:39:06.198Z,11.17
2022-12-29T04:41:35.741Z,11.23
2022-12-29T04:44:04.555Z,11.19
2022-12-29T04:46:56.130Z,11.25
2022-12-29T04:49:37.488Z,11.29
2022-12-29T04:52:38.376Z,11.30
2022-12-29T04:55:10.473Z,11.34
2022-12-29T04:57:38.920Z,11.37
2022-12-29T05:00:10.974Z,11.41
2022-12-29T05:02:40.120Z,11.39
2022-12-29T05:05:09.894Z,11.38
2022-12-29T05:07:43.226Z,11.40
2022-12-29T05:10:13.238Z,11.36
2022-12-29T05:12:42.882Z,11.34
2022-12-29T05:15:13.052Z,11.34
2022-12-29T05:17:41.596Z,11.32
2022-12-29T05:20:11.766Z,11.31
2022-12-29T05:22:40.485Z,11.28
2022-12-29T05:25:10.622Z,11.30
2022-12-29T05:27:55.952Z,11.32
2022-12-29T05:30:41.639Z,11.30
2022-12-29T05:33:12.596Z,11.27
2022-12-29T05:35:41.712Z,11.26
2022-12-29T05:38:10.537Z,11.26
2022-12-29T05:40:39.949Z,11.27
2022-12-29T05:43:19.634Z,11.25
2022-12-29T05:46:08.055Z,11.24
2022-12-29T05:48:58.930Z,11.26
2022-12-29T05:51:34.745Z,11.28
2022-12-29T05:54:03.152Z,11.26
2022-12-29T05:56:31.593Z,11.34
2022-12-29T05:59:03.010Z,11.42
2022-12-29T06:01:32.001Z,11.44
2022-12-29T06:04:00.633Z,11.48
2022-12-29T06:06:29.139Z,11.44
2022-12-29T06:09:00.432Z,11.45
2022-12-29T06:11:28.874Z,11.50
2022-12-29T06:14:01.882Z,11.54
2022-12-29T06:16:30.397Z,11.58
2022-12-29T06:19:01.589Z,11.61
2022-12-29T06:21:30.091Z,11.63
2022-12-29T06:24:00.169Z,11.63
2022-12-29T06:26:28.689Z,11.63
2022-12-29T06:28:57.049Z,11.68
2022-12-29T06:31:26.843Z,11.65
2022-12-29T06:33:55.367Z,11.65
2022-12-29T06:36:23.816Z,11.67
2022-12-29T06:38:53.448Z,11.64
2022-12-29T06:41:25.660Z,11.62
2022-12-29T06:44:12.009Z,11.68
2022-12-29T06:46:56.643Z,11.70
2022-12-29T06:49:25.262Z,11.71
2022-12-29T06:51:53.696Z,11.72
2022-12-29T06:54:22.078Z,11.67
2022-12-29T06:56:50.460Z,11.66
2022-12-29T06:59:18.797Z,11.65
2022-12-29T07:01:47.268Z,11.64
2022-12-29T07:04:17.363Z,11.63
2022-12-29T07:06:45.816Z,11.61
2022-12-29T07:09:14.212Z,11.63
2022-12-29T07:11:42.608Z,11.61
2022-12-29T07:14:12.606Z,11.61
2022-12-29T07:16:41.344Z,11.59
2022-12-29T07:19:09.792Z,11.59
2022-12-29T07:21:47.113Z,11.58
2022-12-29T07:24:15.592Z,11.55
2022-12-29T07:26:44.065Z,11.59
2022-12-29T07:29:12.404Z,11.61
2022-12-29T07:31:40.890Z,11.63
2022-12-29T07:34:10.934Z,11.64
2022-12-29T07:36:40.758Z,11.66
2022-12-29T07:39:09.350Z,11.64
2022-12-29T07:41:37.743Z,11.68
2022-12-29T07:44:06.419Z,11.67
2022-12-29T07:46:54.969Z,11.65
2022-12-29T07:49:25.376Z,11.63
2022-12-29T07:51:55.181Z,11.69
2022-12-29T07:54:24.371Z,11.71
2022-12-29T07:56:52.966Z,11.77
2022-12-29T07:59:21.427Z,11.76
2022-12-29T08:01:50.308Z,11.75
2022-12-29T08:04:18.734Z,11.75
2022-12-29T08:06:47.519Z,11.77
2022-12-29T08:09:22.358Z,11.76
2022-12-29T08:11:51.300Z,11.79
2022-12-29T08:14:20.326Z,11.79
2022-12-29T08:16:49.066Z,11.75
2022-12-29T08:19:17.579Z,11.79
2022-12-29T08:21:45.936Z,11.77
2022-12-29T08:24:14.407Z,11.78
2022-12-29T08:26:44.159Z,11.77
2022-12-29T08:29:12.527Z,11.77
2022-12-29T08:31:41.048Z,11.72
2022-12-29T08:34:09.552Z,11.72
2022-12-29T08:36:37.961Z,11.68
2022-12-29T08:39:06.466Z,11.70
2022-12-29T08:41:34.932Z,11.68
2022-12-29T08:44:04.677Z,11.68
2022-12-29T08:46:33.324Z,11.68
2022-12-29T08:49:01.856Z,11.72
2022-12-29T08:51:30.250Z,11.70
2022-12-29T08:53:58.762Z,11.71
2022-12-29T08:56:27.807Z,11.74
2022-12-29T08:58:58.558Z,11.77
2022-12-29T09:01:28.618Z,11.90
2022-12-29T09:04:14.969Z,11.95
2022-12-29T09:06:44.880Z,11.95
2022-12-29T09:09:13.838Z,11.93
2022-12-29T09:11:42.306Z,11.95
2022-12-29T09:14:10.750Z,11.77
2022-12-29T09:17:01.661Z,11.72
2022-12-29T09:19:30.154Z,11.74
2022-12-29T09:21:58.546Z,11.75
2022-12-29T09:24:26.945Z,11.77
2022-12-29T09:26:55.404Z,11.82
2022-12-29T09:29:24.244Z,11.82
2022-12-29T09:31:54.041Z,11.66
2022-12-29T09:34:22.633Z,11.70
2022-12-29T09:36:51.006Z,11.60
2022-12-29T09:39:19.444Z,11.50
2022-12-29T09:41:55.287Z,11.77
2022-12-29T09:44:33.826Z,11.64
2022-12-29T09:47:03.940Z,11.61
2022-12-29T09:49:42.109Z,11.34
2022-12-29T09:52:17.220Z,11.44
2022-12-29T09:55:02.403Z,11.36
2022-12-29T09:57:39.174Z,11.30
2022-12-29T10:00:15.446Z,11.21
2022-12-29T10:02:49.024Z,11.15
2022-12-29T10:05:35.163Z,11.13
2022-12-29T10:08:19.099Z,11.09
2022-12-29T10:10:56.699Z,11.18
2022-12-29T10:13:38.985Z,11.17
2022-12-29T10:16:17.092Z,11.29
2022-12-29T10:19:11.535Z,11.30
2022-12-29T10:21:55.770Z,11.09
2022-12-29T10:24:25.071Z,11.09
2022-12-29T10:26:54.315Z,11.13
2022-12-29T10:29:26.630Z,11.19
2022-12-29T10:32:01.093Z,11.28
2022-12-29T10:34:38.746Z,11.20
2022-12-29T10:37:14.408Z,11.21
2022-12-29T10:39:50.443Z,11.17
2022-12-29T10:42:31.138Z,11.13
2022-12-29T10:45:01.398Z,11.19
2022-12-29T10:47:34.943Z,11.21
2022-12-29T10:50:06.508Z,11.26
2022-12-29T10:52:36.419Z,11.36
2022-12-29T10:55:10.701Z,11.32
2022-12-29T10:57:44.627Z,11.32
2022-12-29T11:00:17.453Z,11.43
2022-12-29T11:03:40.256Z,11.55
2022-12-29T11:06:13.355Z,11.62
2022-12-29T11:08:47.508Z,11.60
2022-12-29T11:11:27.202Z,11.54
2022-12-29T11:14:01.287Z,11.62
2022-12-29T11:16:32.896Z,12.13
2022-12-29T11:19:01.415Z,12.59
2022-12-29T11:21:40.679Z,12.50
2022-12-29T11:24:23.292Z,12.47
2022-12-29T11:26:58.209Z,12.29
2022-12-29T11:29:30.509Z,12.49
2022-12-29T11:32:01.085Z,12.76
2022-12-29T11:34:35.201Z,13.30
2022-12-29T11:37:11.778Z,13.29
2022-12-29T11:39:45.049Z,13.21
2022-12-29T11:42:18.041Z,13.12
2022-12-29T11:44:49.263Z,13.42
2022-12-29T11:47:28.865Z,13.64
2022-12-29T11:50:01.352Z,13.47
2022-12-29T11:52:36.120Z,13.39
2022-12-29T11:55:08.111Z,13.32
2022-12-29T11:57:37.683Z,13.16
2022-12-29T12:00:17.483Z,13.16
2022-12-29T12:02:54.370Z,13.15
2022-12-29T12:05:36.072Z,13.06
2022-12-29T12:08:19.072Z,13.08
2022-12-29T12:10:55.133Z,13.06
2022-12-29T12:13:32.576Z,13.15
2022-12-29T12:16:07.957Z,13.34
2022-12-29T12:18:44.112Z,13.35
2022-12-29T12:21:21.055Z,13.35
2022-12-29T12:24:21.428Z,13.13
2022-12-29T12:27:01.678Z,13.11
2022-12-29T12:29:40.401Z,12.92
2022-12-29T12:32:18.511Z,12.94
2022-12-29T12:34:49.249Z,12.92
2022-12-29T12:37:40.672Z,12.77
2022-12-29T12:40:42.134Z,12.84
2022-12-29T12:43:39.331Z,12.87
2022-12-29T12:46:22.762Z,12.74
2022-12-29T12:49:14.793Z,12.80
2022-12-29T12:52:04.874Z,13.00
2022-12-29T12:54:58.521Z,13.05
2022-12-29T12:57:42.902Z,12.88
2022-12-29T13:00:14.628Z,12.55
2022-12-29T13:03:00.376Z,12.57
2022-12-29T13:06:15.916Z,12.53
2022-12-29T13:09:15.562Z,12.64
2022-12-29T13:12:02.715Z,12.57
2022-12-29T13:14:46.802Z,12.42
2022-12-29T13:17:25.013Z,12.40
2022-12-29T13:20:03.795Z,12.38
2022-12-29T13:22:40.689Z,12.40
2022-12-29T13:25:30.188Z,12.61
2022-12-29T13:28:05.969Z,12.77
2022-12-29T13:30:42.867Z,12.77
2022-12-29T13:33:24.340Z,12.76
2022-12-29T13:36:02.462Z,12.76
2022-12-29T13:38:38.392Z,12.65
2022-12-29T13:41:11.633Z,12.71
2022-12-29T13:43:44.773Z,12.58
2022-12-29T13:46:19.488Z,12.60
2022-12-29T13:48:54.410Z,12.45
2022-12-29T13:51:28.182Z,12.53
2022-12-29T13:54:20.577Z,12.48
2022-12-29T13:56:54.958Z,12.52
2022-12-29T13:59:41.330Z,12.55
2022-12-29T14:02:23.778Z,12.48
2022-12-29T14:05:01.353Z,12.55
2022-12-29T14:07:30.633Z,12.57
2022-12-29T14:09:59.971Z,12.58
2022-12-29T14:12:34.557Z,12.56
2022-12-29T14:15:23.293Z,12.53
2022-12-29T14:18:27.824Z,12.47
2022-12-29T14:21:00.240Z,12.46
2022-12-29T14:23:38.937Z,12.33
2022-12-29T14:26:17.229Z,12.37
2022-12-29T14:28:47.338Z,12.21
2022-12-29T14:31:42.961Z,12.21
2022-12-29T14:34:31.435Z,12.27
2022-12-29T14:37:03.059Z,12.27
2022-12-29T14:39:40.011Z,12.20
2022-12-29T14:42:14.692Z,12.16
2022-12-29T14:44:51.603Z,12.16
2022-12-29T14:47:25.205Z,12.13
2022-12-29T14:49:56.041Z,12.08
2022-12-29T14:52:28.114Z,12.17
2022-12-29T14:55:01.365Z,12.08
2022-12-29T14:57:41.972Z,12.17
2022-12-29T15:00:20.948Z,12.17
2022-12-29T15:02:55.570Z,12.11
2022-12-29T15:05:36.279Z,12.07
2022-12-29T15:08:06.166Z,12.05
2022-12-29T15:10:42.973Z,12.01
2022-12-29T15:13:23.362Z,11.90
2022-12-29T15:15:52.008Z,11.84
2022-12-29T15:18:27.677Z,11.83
2022-12-29T15:21:00.222Z,11.78
2022-12-29T15:23:29.735Z,11.70
2022-12-29T15:26:00.720Z,11.68
2022-12-29T15:28:38.700Z,11.70
2022-12-29T15:31:13.927Z,11.59
2022-12-29T15:33:44.658Z,11.47
2022-12-29T15:36:20.042Z,11.46
2022-12-29T15:38:48.700Z,11.48
2022-12-29T15:41:29.161Z,11.50
2022-12-29T15:44:11.750Z,11.45
2022-12-29T15:46:40.801Z,11.43
2022-12-29T15:49:10.855Z,11.37
2022-12-29T15:51:41.915Z,11.33
2022-12-29T15:54:19.580Z,11.33
2022-12-29T15:56:50.875Z,11.31
2022-12-29T15:59:27.748Z,11.38
2022-12-29T16:01:58.002Z,11.40
2022-12-29T16:04:30.347Z,11.35
2022-12-29T16:07:03.193Z,11.39
2022-12-29T16:09:35.870Z,11.38
2022-12-29T16:12:09.066Z,11.39
2022-12-29T16:14:48.901Z,11.36
2022-12-29T16:17:22.885Z,11.24
2022-12-29T16:19:54.988Z,11.19
2022-12-29T16:22:33.780Z,11.16
2022-12-29T16:25:07.306Z,11.21
2022-12-29T16:27:40.164Z,11.23
2022-12-29T16:30:19.606Z,11.24
2022-12-29T16:32:49.895Z,11.19
2022-12-29T16:35:21.789Z,11.16
2022-12-29T16:38:13.149Z,11.15
2022-12-29T16:40:51.808Z,11.08
2022-12-29T16:43:26.211Z,11.10
2022-12-29T16:46:21.440Z,11.08
2022-12-29T16:48:53.957Z,11.13
2022-12-29T16:51:32.333Z,11.13
2022-12-29T16:54:03.155Z,10.96
2022-12-29T16:56:34.320Z,10.95
2022-12-29T16:59:07.935Z,10.82
2022-12-29T17:01:40.181Z,10.81
2022-12-29T17:04:12.138Z,10.84
2022-12-29T17:06:41.491Z,10.71
2022-12-29T17:09:22.381Z,10.66
2022-12-29T17:12:01.709Z,10.68
2022-12-29T17:14:44.215Z,10.59
2022-12-29T17:17:18.521Z,10.51
2022-12-29T17:19:51.772Z,10.54
2022-12-29T17:22:25.186Z,10.51
2022-12-29T17:24:55.877Z,10.51
2022-12-29T17:27:29.600Z,10.51
2022-12-29T17:30:02.371Z,10.42
2022-12-29T17:32:31.304Z,10.46
2022-12-29T17:34:59.636Z,10.45
2022-12-29T17:37:36.173Z,10.41
2022-12-29T17:40:09.412Z,10.26
2022-12-29T17:42:44.389Z,10.32
2022-12-29T17:45:17.920Z,10.45
2022-12-29T17:47:46.585Z,10.45
2022-12-29T17:50:18.298Z,10.51
2022-12-29T17:52:52.543Z,10.49
2022-12-29T17:55:26.914Z,10.45
2022-12-29T17:57:57.215Z,10.45
2022-12-29T18:00:29.251Z,10.39
2022-12-29T18:02:58.598Z,10.41
2022-12-29T18:05:29.946Z,10.44
2022-12-29T18:08:01.477Z,10.40
2022-12-29T18:10:32.508Z,10.38
2022-12-29T18:13:02.049Z,10.47
2022-12-29T18:15:34.629Z,10.35
2022-12-29T18:18:10.591Z,10.40
2022-12-29T18:20:39.652Z,10.39
2022-12-29T18:23:10.545Z,10.43
2022-12-29T18:25:46.305Z,10.37
2022-12-29T18:28:14.645Z,10.38
2022-12-29T18:30:43.122Z,10.21
2022-12-29T18:33:21.356Z,10.28
2022-12-29T18:35:56.073Z,10.36
2022-12-29T18:38:24.513Z,10.38
2022-12-29T18:40:54.645Z,10.38
2022-12-29T18:43:23.763Z,10.40
2022-12-29T18:45:52.316Z,10.33
2022-12-29T18:48:22.520Z,10.30
2022-12-29T18:50:51.911Z,10.31
2022-12-29T18:53:23.224Z,10.30
2022-12-29T18:55:53.588Z,10.31
2022-12-29T18:58:22.024Z,10.26
2022-12-29T19:00:51.064Z,10.29
2022-12-29T19:03:20.280Z,10.25
2022-12-29T19:05:49.803Z,10.23
2022-12-29T19:08:18.197Z,10.21
2022-12-29T19:10:47.325Z,10.21
2022-12-29T19:13:20.444Z,10.18
2022-12-29T19:15:49.408Z,10.22
2022-12-29T19:21:10.220Z,10.16
2022-12-29T19:23:38.670Z,10.18
2022-12-29T19:26:07.437Z,10.17
2022-12-29T19:28:37.169Z,10.11
2022-12-29T19:31:05.669Z,10.13
2022-12-29T19:33:34.234Z,10.11
2022-12-29T19:36:03.856Z,10.14
2022-12-29T19:38:32.200Z,10.14
2022-12-29T19:41:00.658Z,10.07
2022-12-29T19:43:30.508Z,10.04
2022-12-29T19:46:00.418Z,10.09
2022-12-29T19:48:28.772Z,10.12
2022-12-29T19:51:06.367Z,10.16
2022-12-29T19:53:35.206Z,10.14
2022-12-29T19:56:05.799Z,10.04
2022-12-29T19:58:35.604Z,10.06
2022-12-29T20:01:12.743Z,10.02
2022-12-29T20:03:42.589Z,10.08
2022-12-29T20:06:12.653Z,10.06
2022-12-29T20:08:41.795Z,10.03
2022-12-29T20:11:13.207Z,10.01
2022-12-29T20:13:42.488Z,9.95
2022-12-29T20:16:16.018Z,10.01
2022-12-29T20:18:45.573Z,9.98
2022-12-29T20:21:17.522Z,9.98
2022-12-29T20:23:46.369Z,9.98
2022-12-29T20:26:16.624Z,9.98
2022-12-29T20:28:45.304Z,10.05
2022-12-29T20:31:21.943Z,10.00
2022-12-29T20:33:50.617Z,9.99
2022-12-29T20:36:22.350Z,10.00
2022-12-29T20:38:52.146Z,10.03
2022-12-29T20:41:21.178Z,9.97
2022-12-29T20:43:49.948Z,10.04
2022-12-29T20:46:21.832Z,10.04
2022-12-29T20:48:51.434Z,9.98
2022-12-29T20:51:21.964Z,9.97
2022-12-29T20:53:50.892Z,10.06
2022-12-29T20:56:22.112Z,10.07
2022-12-29T20:59:25.904Z,10.01
2022-12-29T21:01:42.801Z,9.99
2022-12-29T21:04:11.282Z,10.02
2022-12-29T21:06:39.660Z,10.05
2022-12-29T21:09:08.144Z,10.07
2022-12-29T21:11:36.799Z,9.95
2022-12-29T21:14:05.173Z,9.95
2022-12-29T21:16:33.525Z,9.93
2022-12-29T21:19:03.511Z,10.02
2022-12-29T21:21:31.869Z,10.00
2022-12-29T21:24:05.355Z,9.93
2022-12-29T21:26:35.032Z,9.99
2022-12-29T21:29:04.432Z,9.91
2022-12-29T21:31:35.210Z,9.95
2022-12-29T21:34:06.936Z,9.89
2022-12-29T21:36:35.763Z,9.86
2022-12-29T21:39:04.938Z,9.88
2022-12-29T21:41:33.832Z,9.82
2022-12-29T21:44:19.896Z,9.92
2022-12-29T21:46:48.857Z,9.85
2022-12-29T21:49:18.567Z,9.91
2022-12-29T21:51:54.071Z,9.89
2022-12-29T21:54:43.604Z,9.71
2022-12-29T21:57:33.512Z,9.78
2022-12-29T22:00:20.077Z,9.76
2022-12-29T22:03:06.044Z,9.69
2022-12-29T22:05:53.713Z,9.58
2022-12-29T22:08:39.582Z,9.65
2022-12-29T22:11:27.176Z,9.71
2022-12-29T22:13:58.065Z,9.74
2022-12-29T22:16:26.887Z,9.69
2022-12-29T22:18:55.440Z,9.66
2022-12-29T22:21:25.536Z,9.64
2022-12-29T22:23:53.990Z,9.37
2022-12-29T22:26:22.359Z,9.80
2022-12-29T22:28:52.064Z,9.53
2022-12-29T22:31:28.872Z,9.69
2022-12-29T22:33:59.223Z,9.60
2022-12-29T22:36:29.723Z,9.74
2022-12-29T22:38:58.323Z,9.87
2022-12-29T22:41:26.663Z,10.73
2022-12-29T22:43:56.049Z,10.23
2022-12-29T22:46:24.633Z,10.06
2022-12-29T22:48:53.155Z,9.65
2022-12-29T22:51:21.543Z,9.41
2022-12-29T22:53:52.051Z,9.22
2022-12-29T22:56:21.824Z,9.21
2022-12-29T22:58:51.614Z,9.22
2022-12-29T23:01:22.707Z,9.16
2022-12-29T23:03:51.531Z,9.12
2022-12-29T23:06:20.650Z,9.11
2022-12-29T23:08:49.085Z,9.07
2022-12-29T23:11:18.821Z,9.08
2022-12-29T23:13:47.384Z,8.94
2022-12-29T23:16:17.425Z,8.97
2022-12-29T23:18:48.067Z,8.99
2022-12-29T23:21:18.209Z,8.92
2022-12-29T23:23:57.262Z,8.93
2022-12-29T23:26:32.828Z,8.95
2022-12-29T23:29:03.607Z,8.93
2022-12-29T23:31:33.451Z,8.77
2022-12-29T23:34:03.788Z,8.87
2022-12-29T23:36:32.874Z,8.78
2022-12-29T23:39:01.601Z,8.85
2022-12-29T23:41:31.744Z,8.79
2022-12-29T23:44:00.089Z,8.77
2022-12-29T23:46:31.350Z,8.81
2022-12-29T23:49:00.258Z,8.75
2022-12-29T23:51:28.761Z,8.77
2022-12-29T23:53:57.191Z,8.83
2022-12-29T23:56:25.642Z,8.66
2022-12-29T23:58:55.508Z,8.71
